createdAt,value
2018-06-12T19:42:16.078Z,22.94
2018-06-12T19:44:44.165Z,23.01
2018-06-12T19:51:32.470Z,24.09
2018-06-12T19:54:02.044Z,23.49
2018-06-12T19:56:31.136Z,23.23
2018-06-12T19:58:59.970Z,23.18
2018-06-12T20:01:28.398Z,23.14
2018-06-12T20:03:56.250Z,23.18
2018-06-12T20:06:25.569Z,23.27
2018-06-12T20:09:25.109Z,23.27
2018-06-12T20:11:53.206Z,23.55
2018-06-12T20:14:20.783Z,23.67
2018-06-12T20:16:51.659Z,23.67
2018-06-12T20:19:23.575Z,23.68
2018-06-12T20:21:58.515Z,23.68
2018-06-12T20:27:02.971Z,23.72
2018-06-12T20:29:32.361Z,23.74
2018-06-12T20:32:01.925Z,23.78
2018-06-12T20:34:30.075Z,23.82
2018-06-12T20:36:59.454Z,23.85
2018-06-12T20:39:29.929Z,23.89
2018-06-12T20:41:58.219Z,23.93
2018-06-12T20:44:28.682Z,23.96
2018-06-12T20:46:57.873Z,23.98
2018-06-12T20:49:27.634Z,24.02
2018-06-12T20:51:56.325Z,24.05
2018-06-12T20:54:27.452Z,24.07
2018-06-12T20:56:56.662Z,24.10
2018-06-12T20:59:25.236Z,24.14
2018-06-12T21:01:53.442Z,24.15
2018-06-12T21:04:22.322Z,24.17
2018-06-12T21:06:51.114Z,24.20
2018-06-12T21:09:20.191Z,24.28
2018-06-12T21:11:47.755Z,24.34
2018-06-12T21:14:16.246Z,24.38
2018-06-12T21:16:44.419Z,24.41
2018-06-12T21:19:14.291Z,24.43
2018-06-12T21:21:43.103Z,24.46
2018-06-12T21:24:15.538Z,24.48
2018-06-12T21:26:43.364Z,24.49
2018-06-12T21:29:15.154Z,24.52
2018-06-12T21:34:23.658Z,24.56
2018-06-12T21:36:56.143Z,24.57
2018-06-12T21:39:24.911Z,24.59
2018-06-12T21:41:52.759Z,24.60
2018-06-12T21:44:20.317Z,24.62
2018-06-12T21:46:47.902Z,24.63
2018-06-12T21:49:15.794Z,24.64
2018-06-12T21:51:44.290Z,24.66
2018-06-12T21:54:11.851Z,24.70
2018-06-12T21:56:40.684Z,24.75
2018-06-12T21:59:08.230Z,24.77
2018-06-12T22:01:39.387Z,24.77
2018-06-12T22:04:07.916Z,24.75
2018-06-12T22:06:35.538Z,24.73
2018-06-12T22:09:03.233Z,24.73
2018-06-12T22:11:31.919Z,24.71
2018-06-12T22:14:00.068Z,24.70
2018-06-12T22:16:27.664Z,24.70
2018-06-12T22:18:55.711Z,24.69
2018-06-12T22:21:28.086Z,24.69
2018-06-12T22:23:56.314Z,24.68
2018-06-12T22:26:24.929Z,24.68
2018-06-12T22:28:52.511Z,24.67
2018-06-12T22:31:20.083Z,24.67
2018-06-12T22:33:49.410Z,24.66
2018-06-12T22:36:18.153Z,24.67
2018-06-12T22:38:46.515Z,24.65
2018-06-12T22:41:14.493Z,24.65
2018-06-12T22:43:44.638Z,24.65
2018-06-12T22:46:12.446Z,24.64
2018-06-12T22:48:40.006Z,24.64
2018-06-12T22:51:07.549Z,24.64
2018-06-12T22:53:35.355Z,24.63
2018-06-12T22:56:03.361Z,24.63
2018-06-12T22:58:30.957Z,24.63
2018-06-12T23:00:58.547Z,24.62
2018-06-12T23:03:27.433Z,24.61
2018-06-12T23:05:55.821Z,24.62
2018-06-12T23:08:24.227Z,24.61
2018-06-12T23:10:52.441Z,24.60
2018-06-12T23:13:20.038Z,24.61
2018-06-12T23:15:47.629Z,24.60
2018-06-12T23:18:15.598Z,24.60
2018-06-12T23:20:43.156Z,24.59
2018-06-12T23:23:10.730Z,24.59
2018-06-12T23:25:42.523Z,24.58
2018-06-12T23:28:10.124Z,24.58
2018-06-12T23:30:39.365Z,24.57
2018-06-12T23:33:07.508Z,24.57
2018-06-12T23:35:35.106Z,24.57
2018-06-12T23:38:02.693Z,24.57
2018-06-12T23:40:31.531Z,24.56
2018-06-12T23:42:59.131Z,24.57
2018-06-12T23:45:26.666Z,24.56
2018-06-12T23:47:55.402Z,24.54
2018-06-12T23:50:25.456Z,24.54
2018-06-12T23:52:53.139Z,24.54
2018-06-12T23:55:20.706Z,24.52
2018-06-12T23:57:49.242Z,24.54
